Bejelentkezés
MINDENAUTO.HU

MINDEN
AUTÓ

autó

Info

MINDENAUTO.HU

MINDEN AUTÓ - Eladó használt és új gépjárművek, autók

Magyarországi új és használt járművek képes listája, ingyenes autó hirdetési lehetőség. Autó apróhirdetés. Járművek, autók, motorok, tehergépjárművek. Eladó Suzuki, Opel, Fiat, Mercedes, BMW, Audi, Nissan. Új és használtan importált kedvezményes áru autók. Autólízing, hitelnyújtás. Használtautó hu, minden eladó jármű hirdetések, hirdetésfeladás. Járműadatbázis, motor, haszongépjármű, busz, terepjáró és teherautó kínálat is.

Legújabb twittek

EGKR 230550Z AUTO 00000KT 7000 NCD 06/06 Q1022=

Gyorshajtás miatt borult árokba egy autó Zsáka és Darvas között https://t.co/BdnVRSRKwS

@antimarkovnikv Auto melalak

Bener huhu auto deg deg an ini 😌 https://t.co/gHmdqU6irh

@RyansCardssLLC Vidal Brujan /50 auto $58 shipped BMWT https://t.co/mm7bMEJNpU

@jazzy867 @Nirmala2205 @tjhinfar21 @haris_azhar @KontraS @KomnasHAM Auto mingkem mereka.....

Nikkor-s auto 50/1.4 https://t.co/5icSeWoOCq

RT @RPBillings: @midwestboxbreak @PhilsPulls Ramon Urias 21 Prizm Red Auto # /99 $12 shipped BMWT https://t.co/exiL1zsuUF

EGKR 222050Z AUTO 00000KT 8000 NCD 08/07 Q1025=

Tök udvarias vagy haver, hogy elengednéd az autot, de zöld a lámpa, ugyhogy i dont fuckimg care, én megyek át elöször és aztán csak az auto.

RT @lovinggillespie: AuTo MoNo ZhTwWwW

EGKR 221950Z AUTO 00000KT 9999 NCD 10/10 Q1025=

@Dualgre @yvngdual lmao ontos isxyei auto

EGKR 221850Z AUTO 32002KT 9999 NCD 12/10 Q1025=

@zonaminsung ak auto keselek T__T @xxfoxiny

Rj Barrett 2019 immaculate gold ink auto /10 $600 obo @HobbyConnector @sports_sell https://t.co/6JnURl5Eqg

Baleset: egy autó csapódott a 6-os villamosba éjjel, sérült is van https://t.co/WguDWGxTRE

Baleset: egy autó csapódott a 6-os villamosba éjjel, sérült is van https://t.co/xQ6CnXYmtI

Két jármű ütközött össze a 61-esen Nagykónyinál https://t.co/eMcUT53KQ2 September 22, 2021 at 01:37PM

Több jármű ütközött össze a 32-es főúton https://t.co/fpPZrs11LM September 21, 2021 at 08:36PM

Csak, hogy tudd 11:41 a föld jármű még mindig jobbra megyünk/ "ugrunk", hogy kikerüljük az ütkőtést Lehet érezted a navigációt.

@Efti86 @RealMetka Simán megértem. A dramaturgia az sokszor nagyon keserves, ez valóban fájó. Játékosként viszont t… https://t.co/1I6MKGnq9A

Nektek tetszene egy ilyen járműreklám? Like, ha igen 😉 #jármű #reklám #dekor #matrica #ötletes https://t.co/gDcaqLpCwh

Nekem szilárd meggyőződésem, h mára hiába a CAD, hiába az AR, a designerek mindenféle jármű vonatkozásában elfelejt… https://t.co/ro3tOC2rYg

RT @car_tortenet: Jó 2 héttel ezelőtt volt szerencsém az egri veteránosok meghívását elfogadva részt venni egy seregszemlén, ahol sok már é…

Jó 2 héttel ezelőtt volt szerencsém az egri veteránosok meghívását elfogadva részt venni egy seregszemlén, ahol sok… https://t.co/2uQVvT1Uqq

@DikanGabor tartok tőle, hogy ezt itt buktam el: “a jármű műszaki alkalmasságát tanúsító, a közlekedési hatóság ált… https://t.co/mEJYp0tu7J

Nézd meg ezt a terméket!!! 😍 Játék Jármű Szett Vtech (Es) 😍 Vedd meg Akciós áron Most a Webáruházunkban. Vásárlá… https://t.co/b8wsnceYZ9

Keresés

Rólunk

Magyarországi új és használt járművek képes listája, ingyenes autó hirdetési lehetőség. Autó apróhirdetés. Járművek, autók, motorok, tehergépjárművek. Eladó Suzuki, Opel, Fiat, Mercedes, BMW, Audi, Nissan. Új és használtan importált kedvezményes áru autók. Autólízing, hitelnyújtás. Használtautó hu, minden eladó jármű hirdetések, hirdetésfeladás. Járműadatbázis, motor, haszongépjármű, busz, terepjáró és teherautó kínálat is.
Kapcsolat

Hírek

Ez a TOP 10 legnagyobb hatótávval rendelkező elektromos autó 2021-ben - VIDEÓ  Alapjárat Jótékonysági biciklikaravánba hajtott egy autós Arizonában  Hír TV Ilyen harcias Peugeot-ból nincs még egy  Vezess Jól számolt-e Berki Krisztián, amikor elutasította a két és fél év börtönt?  24.hu Árokba hajtott egy autó a 77-es főúton Nemesvámosnál  Napló Online
Nagy baleset rázta meg a kacsótaiakat vasárnap reggel  Baranya Ma Nem adott elsőbbséget, nekiütközött egy másik autónak Csabaszabadiban | BEOL  BEOL.hu Saját akkucella-beszállítójukká válnak az autógyártók  Autopro.hu Elfogták a szerb embercsempészt  TEOL Emberek közé hajtott egy autós a floridai melegfelvonuláson, halálos áldozat is van - videó  Origo origo.hu Vonattal ütközött egy autó Monorierdőnél  Origo Kisteherautó hajtott a tömegbe a Pride-felvonuláson  Index.hu Toyota Hilux pusztítási teszt WhistlinDiesel  Vezess Egy évtized után betonra került az Aptera háromkerekű, napenergiával működő EV-je  Igényesférfi.hu Villanyoszlopnak ütközött egy autó Aranyosapátiban, egy gázcsonk is megsérült  Szabolcs Online Újtelepi Garázsvásár a kánikulában  Dunaújváros Online Két autó összeütközött Tiszakécske és Tiszajenő között | SZOLJON  Szoljon.hu Szalagkorlátnak csapódott és kigyulladt egy autó az M3-ason Pusztadobosnál  Szabolcs Online Lehet-e elektromos autókat vontatni?  Alapjárat Szalagkorlátnak csapódott egy autó a 4-es főúton | SZOLJON  Szoljon.hu